Time;durP1;ratioP1;P1;durP2;ratioP2;P2;SDS_P1;SDS_P2;PMS_P1;PMS_P2;Temp;Humidity;BMP_temperature;BMP_pressure;BME280_temperature;BME280_humidity;BME280_pressure;Samples;Min_cycle;Max_cycle;Signal;HPM_P1;HPM_P2
2024/04/06 00:02:15;;;;;;;2.90;2.70;;;14.10;99.90;;;;;;6291042;22;20763;-86
2024/04/06 00:04:42;;;;;;;2.77;2.67;;;14.10;99.90;;;;;;6289969;22;20432;-86
2024/04/06 00:07:08;;;;;;;4.33;3.20;;;14.20;99.90;;;;;;6289338;22;20393;-86
2024/04/06 00:09:37;;;;;;;7.07;4.37;;;14.20;99.90;;;;;;6286961;22;20845;-87
2024/04/06 00:12:04;;;;;;;4.83;4.37;;;14.20;99.90;;;;;;6287438;22;20737;-86
2024/04/06 00:14:31;;;;;;;4.80;3.90;;;14.20;1.00;;;;;;6293703;22;20423;-86
2024/04/06 00:16:57;;;;;;;4.73;3.77;;;14.20;99.90;;;;;;6304525;22;20422;-87
2024/04/06 00:19:24;;;;;;;4.37;3.80;;;14.20;99.90;;;;;;6305129;22;20371;-86
2024/04/06 00:21:50;;;;;;;5.87;3.80;;;14.10;1.00;;;;;;6302400;22;20432;-86
2024/04/06 00:24:17;;;;;;;3.70;3.50;;;14.10;1.00;;;;;;6301154;22;20436;-85
2024/04/06 00:26:44;;;;;;;4.37;3.97;;;14.00;1.00;;;;;;6298072;22;20372;-87
2024/04/06 00:29:11;;;;;;;10.13;9.23;;;14.00;1.00;;;;;;6291960;22;20412;-87
2024/04/06 00:31:37;;;;;;;4.83;3.90;;;14.00;1.00;;;;;;6291620;22;20424;-86
2024/04/06 00:34:04;;;;;;;6.90;4.70;;;13.90;1.00;;;;;;6292942;22;20412;-86
2024/04/06 00:36:31;;;;;;;14.33;12.07;;;13.90;99.90;;;;;;6305567;22;20165;-86
2024/04/06 00:38:57;;;;;;;8.87;5.07;;;13.90;99.90;;;;;;6305454;22;20375;-85
2024/04/06 00:41:23;;;;;;;5.57;4.30;;;13.80;99.90;;;;;;6305428;22;20386;-85
2024/04/06 00:43:51;;;;;;;4.60;4.17;;;13.80;99.90;;;;;;6304891;22;20393;-83
2024/04/06 00:46:17;;;;;;;11.43;4.90;;;13.70;1.00;;;;;;6293982;22;20170;-86
2024/04/06 00:48:46;;;;;;;10.50;6.47;;;13.70;1.00;;;;;;6285361;22;20414;-86
2024/04/06 00:51:12;;;;;;;9.13;6.73;;;13.60;99.90;;;;;;6287268;22;20504;-85
2024/04/06 00:53:39;;;;;;;8.27;6.93;;;13.60;99.90;;;;;;6286765;22;20396;-86
2024/04/06 00:56:06;;;;;;;12.83;10.20;;;13.50;1.00;;;;;;6285268;22;20428;-86
2024/04/06 00:58:33;;;;;;;12.37;8.03;;;13.50;99.90;;;;;;6285089;22;20944;-86
2024/04/06 01:01:00;;;;;;;9.93;8.53;;;13.50;99.90;;;;;;6285938;22;20422;-86
2024/04/06 01:03:27;;;;;;;11.13;8.47;;;13.40;1.00;;;;;;6285949;22;20401;-85
2024/04/06 01:05:53;;;;;;;9.27;8.30;;;13.40;99.90;;;;;;6288255;22;20437;-86
2024/04/06 01:08:20;;;;;;;9.97;7.27;;;13.30;38.50;;;;;;6305544;22;20359;-84
2024/04/06 01:10:46;;;;;;;7.90;6.73;;;13.30;78.70;;;;;;6305266;22;20194;-83
2024/04/06 01:13:13;;;;;;;6.90;6.00;;;13.20;99.90;;;;;;6306780;22;20359;-84
2024/04/06 01:15:39;;;;;;;7.10;5.27;;;13.20;99.90;;;;;;6282423;22;20474;-85
2024/04/06 01:18:07;;;;;;;6.50;4.40;;;13.10;99.90;;;;;;6281828;22;20428;-85
2024/04/06 01:20:35;;;;;;;6.57;5.70;;;13.10;99.90;;;;;;6289936;22;20413;-85
2024/04/06 01:23:03;;;;;;;6.47;5.77;;;13.00;99.90;;;;;;6301697;22;20384;-84
2024/04/06 01:25:30;;;;;;;8.60;7.77;;;13.00;99.90;;;;;;6300574;22;20440;-84
2024/04/06 01:27:57;;;;;;;7.53;6.33;;;13.10;99.90;;;;;;6301036;22;20515;-84
2024/04/06 01:30:22;;;;;;;10.30;6.70;;;13.10;99.90;;;;;;6301149;22;20382;-85
2024/04/06 01:32:50;;;;;;;7.30;6.13;;;13.10;99.90;;;;;;6301877;22;20401;-84
2024/04/06 01:35:16;;;;;;;6.50;5.90;;;13.00;99.90;;;;;;6303926;22;20383;-84
2024/04/06 01:37:44;;;;;;;6.50;5.90;;;13.00;99.90;;;;;;6301053;22;20534;-86
2024/04/06 01:40:11;;;;;;;6.90;5.43;;;13.00;99.90;;;;;;6290304;22;20447;-84
2024/04/06 01:42:39;;;;;;;8.53;7.00;;;12.90;99.90;;;;;;6285924;22;20408;-85
2024/04/06 01:45:06;;;;;;;13.50;6.70;;;12.90;99.90;;;;;;6285164;22;20436;-85
2024/04/06 01:47:32;;;;;;;9.87;6.40;;;12.90;99.90;;;;;;6286109;22;20383;-85
2024/04/06 01:50:03;;;;;;;8.53;7.77;;;12.90;99.90;;;;;;6299327;22;20434;-84
2024/04/06 01:52:30;;;;;;;10.17;7.40;;;12.90;99.90;;;;;;6299828;22;20408;-83
2024/04/06 01:54:57;;;;;;;8.20;7.40;;;13.00;99.90;;;;;;6301954;22;20413;-83
2024/04/06 01:57:24;;;;;;;10.20;7.43;;;13.00;99.90;;;;;;6304336;22;20486;-83
2024/04/06 01:59:51;;;;;;;10.10;5.73;;;13.00;99.90;;;;;;6304060;22;20375;-83
2024/04/06 02:02:18;;;;;;;9.00;5.70;;;13.00;99.90;;;;;;6304341;22;20420;-84
2024/04/06 02:04:46;;;;;;;6.30;5.70;;;13.00;99.90;;;;;;6304638;22;20421;-83
2024/04/06 02:07:13;;;;;;;8.23;4.63;;;12.90;99.90;;;;;;6304278;22;20464;-84
2024/04/06 02:09:39;;;;;;;6.37;4.50;;;12.90;99.90;;;;;;6304406;22;20386;-84
2024/04/06 02:12:06;;;;;;;4.97;4.57;;;12.90;99.90;;;;;;6304257;22;20382;-84
2024/04/06 02:14:32;;;;;;;5.37;4.50;;;12.90;99.90;;;;;;6304815;22;20401;-83
2024/04/06 02:17:00;;;;;;;5.00;4.60;;;13.00;99.90;;;;;;6305191;22;20430;-83
2024/04/06 02:19:26;;;;;;;6.63;5.00;;;13.00;99.90;;;;;;6305070;22;20405;-83
2024/04/06 02:21:53;;;;;;;5.53;4.10;;;13.00;99.90;;;;;;6304067;22;20414;-83
2024/04/06 02:24:18;;;;;;;6.57;3.93;;;13.00;99.90;;;;;;6304123;22;20178;-84
2024/04/06 02:26:46;;;;;;;3.90;3.60;;;12.90;99.90;;;;;;6304040;22;20487;-84
2024/04/06 02:29:12;;;;;;;4.53;4.13;;;13.00;99.90;;;;;;6305614;22;20363;-84
2024/04/06 02:31:39;;;;;;;7.90;4.00;;;13.00;99.90;;;;;;6301895;22;20428;-84
2024/04/06 02:34:08;;;;;;;5.33;4.20;;;13.00;99.90;;;;;;6289235;22;20388;-82
2024/04/06 02:36:35;;;;;;;3.73;3.43;;;13.00;99.90;;;;;;6307213;22;20391;-82
2024/04/06 02:39:02;;;;;;;5.80;4.20;;;12.90;99.90;;;;;;6307203;22;20363;-82
2024/04/06 02:41:28;;;;;;;5.30;4.23;;;12.90;99.90;;;;;;6306619;22;20398;-84
2024/04/06 02:43:55;;;;;;;6.50;4.33;;;12.90;99.90;;;;;;6288132;22;20404;-85
2024/04/06 02:46:21;;;;;;;7.50;3.57;;;12.90;99.90;;;;;;6284729;22;20225;-85
2024/04/06 02:48:48;;;;;;;5.70;3.70;;;12.90;99.90;;;;;;6283783;22;20375;-84
2024/04/06 02:51:16;;;;;;;4.90;3.80;;;12.90;99.90;;;;;;6284107;22;20431;-84
2024/04/06 02:53:43;;;;;;;4.23;3.83;;;12.80;99.90;;;;;;6283450;22;20780;-84
2024/04/06 02:56:09;;;;;;;4.27;3.93;;;12.80;99.90;;;;;;6283761;22;20982;-84
2024/04/06 02:58:36;;;;;;;3.90;3.60;;;12.90;99.90;;;;;;6284945;22;20400;-84
2024/04/06 03:01:01;;;;;;;4.63;3.90;;;12.90;99.90;;;;;;6286996;22;20484;-84
2024/04/06 03:03:28;;;;;;;3.53;3.23;;;12.80;99.90;;;;;;6286376;22;20404;-84
2024/04/06 03:05:54;;;;;;;3.77;3.37;;;12.90;99.90;;;;;;6287299;22;20411;-84
2024/04/06 03:08:22;;;;;;;6.13;3.50;;;12.80;99.90;;;;;;6287265;22;20758;-84
2024/04/06 03:10:48;;;;;;;5.23;3.83;;;12.80;99.90;;;;;;6290861;22;20205;-84
2024/04/06 03:13:15;;;;;;;3.53;3.33;;;12.90;99.90;;;;;;6284277;22;20383;-85
2024/04/06 03:15:41;;;;;;;4.43;3.70;;;12.90;99.90;;;;;;6289567;22;20200;-84
2024/04/06 03:18:07;;;;;;;7.47;3.80;;;12.90;99.90;;;;;;6300525;22;20404;-83
2024/04/06 03:20:34;;;;;;;5.40;3.10;;;12.90;99.90;;;;;;6301555;22;20194;-84
2024/04/06 03:23:01;;;;;;;3.77;3.47;;;12.90;99.90;;;;;;6296990;22;20173;-84
2024/04/06 03:31:12;;;;;;;3.77;3.47;;;12.90;99.90;;;;;;6298239;22;20402;-88
2024/04/06 03:40:20;;;;;;;5.50;4.00;;;12.90;99.90;;;;;;6284459;22;20473;-89
2024/04/06 04:01:02;;;;;;;6.00;4.03;;;12.70;99.90;;;;;;5888279;24;20395;-89
2024/04/06 04:40:12;;;;;;;5.83;4.07;;;12.50;99.90;;;;;;6015798;23;20424;-89
2024/04/06 04:43:14;;;;;;;4.40;4.00;;;12.40;99.90;;;;;;6129249;23;20379;-90
2024/04/06 04:46:21;;;;;;;8.03;3.97;;;12.40;99.90;;;;;;6090242;23;20444;-90
2024/04/06 04:52:46;;;;;;;6.10;4.70;;;12.40;99.90;;;;;;6048111;23;20466;-90
2024/04/06 04:59:44;;;;;;;6.13;4.10;;;12.40;99.90;;;;;;5950801;23;20461;-89
2024/04/06 05:09:31;;;;;;;5.07;4.27;;;12.40;99.90;;;;;;6055129;23;20723;-88
2024/04/06 05:11:57;;;;;;;7.20;4.37;;;12.40;99.90;;;;;;6183182;23;20535;-88
2024/04/06 05:14:28;;;;;;;4.50;4.10;;;12.40;99.90;;;;;;6245196;22;20783;-89
2024/04/06 05:16:54;;;;;;;3.83;3.50;;;12.40;99.90;;;;;;6275025;22;20395;-89
2024/04/06 05:19:23;;;;;;;7.20;4.30;;;12.40;99.90;;;;;;6274568;22;20385;-87
2024/04/06 05:21:58;;;;;;;4.80;4.40;;;12.40;99.90;;;;;;6262129;22;20405;-89
2024/04/06 05:24:34;;;;;;;5.30;4.77;;;12.50;99.90;;;;;;6251681;22;20943;-89
2024/04/06 05:27:06;;;;;;;5.33;4.47;;;12.50;99.90;;;;;;6252207;23;20390;-90
2024/04/06 05:29:37;;;;;;;4.50;3.40;;;12.60;99.90;;;;;;6250797;23;20425;-89
2024/04/06 05:35:25;;;;;;;4.07;3.53;;;12.70;99.90;;;;;;6247655;22;20443;-89
2024/04/06 05:38:24;;;;;;;;;;;;;;;;;;;;;
2024/04/06 05:40:56;;;;;;;4.37;3.97;;;12.80;1.00;;;;;;6274019;23;20445;-89
2024/04/06 05:43:32;;;;;;;6.07;4.17;;;12.80;1.00;;;;;;6271206;22;20413;-90
2024/04/06 05:46:12;;;;;;;6.03;4.03;;;12.90;99.90;;;;;;6264228;22;20511;-90
2024/04/06 05:52:50;;;;;;;3.90;3.60;;;12.90;52.20;;;;;;6146287;23;20472;-89
2024/04/06 05:55:29;;;;;;;3.90;3.60;;;13.00;99.90;;;;;;6252452;22;20440;-89
2024/04/06 05:58:39;;;;;;;3.47;3.27;;;13.00;64.80;;;;;;6252551;23;20409;-89
2024/04/06 06:01:53;;;;;;;6.23;3.63;;;13.10;1.00;;;;;;6255488;23;20437;-89
2024/04/06 06:04:48;;;;;;;4.33;3.93;;;13.10;99.90;;;;;;6253261;22;20500;-89
2024/04/06 06:10:47;;;;;;;4.40;3.13;;;13.30;10.40;;;;;;6263695;22;20389;-89
2024/04/06 06:13:27;;;;;;;4.97;3.23;;;13.30;1.00;;;;;;6276058;22;20397;-88
2024/04/06 06:16:23;;;;;;;7.00;3.80;;;13.40;1.00;;;;;;6271932;22;20440;-89
2024/04/06 06:19:04;;;;;;;6.30;3.50;;;13.50;1.00;;;;;;6267482;22;20945;-90
2024/04/06 06:24:57;;;;;;;5.47;3.43;;;13.60;99.90;;;;;;6250648;22;20425;-89
2024/04/06 06:30:18;;;;;;;4.80;3.10;;;13.60;99.90;;;;;;6254615;23;20504;-89
2024/04/06 06:33:21;;;;;;;3.80;3.50;;;13.70;99.90;;;;;;6255522;23;20972;-89
2024/04/06 06:36:13;;;;;;;4.40;3.90;;;13.80;99.90;;;;;;6247195;22;20508;-90
2024/04/06 06:39:06;;;;;;;3.77;3.47;;;13.90;99.90;;;;;;6267010;23;20413;-90
2024/04/06 06:41:40;;;;;;;6.30;3.13;;;14.00;4.50;;;;;;6255287;23;20380;-89
2024/04/06 06:47:17;;;;;;;4.43;3.17;;;14.10;1.00;;;;;;6235873;23;20449;-89
2024/04/06 06:50:28;;;;;;;4.93;3.10;;;14.20;1.00;;;;;;6259618;23;20376;-89
2024/04/06 06:56:07;;;;;;;8.27;3.27;;;14.30;1.00;;;;;;6250452;22;20428;-90
2024/04/06 06:58:37;;;;;;;5.20;3.43;;;14.30;1.00;;;;;;6275077;22;20396;-89
2024/04/06 07:01:11;;;;;;;5.00;2.80;;;14.40;1.00;;;;;;6275483;22;20402;-89
2024/04/06 07:03:44;;;;;;;3.33;3.03;;;14.40;99.90;;;;;;6275368;22;20394;-89
2024/04/06 07:06:17;;;;;;;3.73;2.77;;;14.40;99.90;;;;;;6274925;22;20460;-89
2024/04/06 07:08:51;;;;;;;3.73;2.73;;;14.50;99.90;;;;;;6275425;22;20456;-88
2024/04/06 07:18:42;;;;;;;5.50;3.63;;;14.80;99.90;;;;;;6183576;23;20407;-89
2024/04/06 07:45:01;;;;;;;;;;;;;;;;;;;;;
2024/04/06 07:56:32;;;;;;;3.10;2.90;;;16.30;1.00;;;;;;6301312;22;20428;-89
2024/04/06 08:02:53;;;;;;;4.27;2.57;;;16.40;1.00;;;;;;6116780;23;20386;-89
2024/04/06 08:05:29;;;;;;;4.07;2.70;;;16.50;99.90;;;;;;6169106;23;20794;-89
2024/04/06 08:11:04;;;;;;;5.90;2.80;;;16.70;1.00;;;;;;6300766;22;20423;-84
2024/04/06 08:13:30;;;;;;;3.27;2.97;;;16.80;99.90;;;;;;6303283;22;20400;-84
2024/04/06 08:15:57;;;;;;;2.73;2.53;;;16.80;99.90;;;;;;6302787;22;20421;-83
2024/04/06 08:18:26;;;;;;;2.20;2.10;;;17.00;99.90;;;;;;6292264;22;20408;-85
2024/04/06 08:20:54;;;;;;;2.60;2.40;;;16.90;35.40;;;;;;6258963;23;20420;-84
2024/04/06 08:23:20;;;;;;;4.43;2.40;;;16.90;99.90;;;;;;6252802;23;20484;-84
2024/04/06 08:25:49;;;;;;;3.13;2.30;;;17.00;54.20;;;;;;6252439;23;20445;-84
2024/04/06 08:28:15;;;;;;;3.50;2.60;;;17.20;99.90;;;;;;6253177;23;20401;-84
2024/04/06 08:30:42;;;;;;;3.03;2.23;;;17.30;78.40;;;;;;6254765;23;20432;-83
2024/04/06 08:33:08;;;;;;;2.63;2.43;;;17.60;99.90;;;;;;6253522;23;20174;-83
2024/04/06 08:35:37;;;;;;;3.73;2.23;;;17.70;13.10;;;;;;6254204;23;20689;-83
2024/04/06 08:38:05;;;;;;;7.43;2.27;;;17.60;1.00;;;;;;6259202;23;20217;-83
2024/04/06 08:40:32;;;;;;;3.83;2.27;;;17.50;25.40;;;;;;6259260;23;20425;-88
2024/04/06 08:43:13;;;;;;;3.87;3.47;;;17.50;32.30;;;;;;6255913;23;20406;-88
2024/04/06 08:49:25;;;;;;;3.23;2.40;;;17.60;1.00;;;;;;6241952;23;20739;-86
2024/04/06 08:52:16;;;;;;;4.53;2.97;;;17.80;1.00;;;;;;6167341;23;20448;-87
2024/04/06 08:55:24;;;;;;;3.83;2.67;;;18.10;1.00;;;;;;6253419;23;20396;-86
2024/04/06 08:58:16;;;;;;;3.10;2.90;;;18.00;1.00;;;;;;6194962;23;20440;-87
2024/04/06 09:01:03;;;;;;;6.63;3.17;;;18.20;1.00;;;;;;6249904;23;20471;-88
2024/04/06 09:03:42;;;;;;;3.60;2.97;;;18.40;1.00;;;;;;6253529;23;20382;-89
2024/04/06 09:06:16;;;;;;;4.23;2.70;;;18.40;1.00;;;;;;6251233;23;20409;-87
2024/04/06 09:08:44;;;;;;;3.53;2.93;;;18.50;1.00;;;;;;6250746;23;20378;-86
2024/04/06 09:11:12;;;;;;;6.50;4.40;;;18.40;1.00;;;;;;6251113;23;20390;-87
2024/04/06 09:13:42;;;;;;;6.40;3.20;;;18.30;1.00;;;;;;6251479;23;20407;-88
2024/04/06 09:16:44;;;;;;;4.80;3.60;;;18.30;1.00;;;;;;6252251;23;20445;-87
2024/04/06 09:19:24;;;;;;;3.13;2.70;;;18.20;1.00;;;;;;6252993;23;20415;-88
2024/04/06 09:22:17;;;;;;;4.30;2.80;;;18.20;1.00;;;;;;6253896;23;20842;-89
2024/04/06 09:24:46;;;;;;;2.43;2.33;;;18.10;1.00;;;;;;6253772;23;20419;-88
2024/04/06 09:27:22;;;;;;;2.40;2.20;;;18.10;1.00;;;;;;6250307;23;20401;-88
2024/04/06 09:33:06;;;;;;;4.53;2.60;;;17.90;1.00;;;;;;6248006;23;20398;-88
2024/04/06 09:35:40;;;;;;;3.73;2.20;;;18.00;1.00;;;;;;6259900;23;20428;-87
2024/04/06 09:38:14;;;;;;;3.63;2.60;;;18.00;1.00;;;;;;6254170;23;20422;-87
2024/04/06 09:40:45;;;;;;;2.80;2.50;;;18.00;1.00;;;;;;6260596;23;20430;-87
2024/04/06 09:43:18;;;;;;;3.43;2.47;;;18.10;1.00;;;;;;6266791;23;20383;-89
2024/04/06 09:45:44;;;;;;;3.90;2.53;;;18.20;1.00;;;;;;6269865;23;20494;-88
2024/04/06 10:05:05;;;;;;;3.23;2.13;;;19.10;1.00;;;;;;6091538;23;20404;-87
2024/04/06 10:07:59;;;;;;;2.70;2.50;;;19.10;1.00;;;;;;6125005;23;20430;-87
2024/04/06 10:13:21;;;;;;;3.40;2.27;;;18.90;1.00;;;;;;6219216;22;20390;-86
2024/04/06 10:15:48;;;;;;;5.97;2.30;;;19.00;1.00;;;;;;6275803;22;20414;-87
2024/04/06 10:18:18;;;;;;;3.17;2.17;;;18.90;1.00;;;;;;6275806;22;20399;-87
2024/04/06 10:20:55;;;;;;;3.13;2.83;;;19.00;1.00;;;;;;6268670;22;20806;-88
2024/04/06 10:23:46;;;;;;;4.40;2.00;;;19.10;1.00;;;;;;6258144;23;20408;-88
2024/04/06 10:26:20;;;;;;;2.97;2.60;;;19.10;1.00;;;;;;6271660;22;20408;-88
2024/04/06 10:28:51;;;;;;;2.50;2.30;;;19.00;1.00;;;;;;6266374;23;20491;-86
2024/04/06 10:31:19;;;;;;;5.20;2.20;;;18.90;1.00;;;;;;6266610;23;20509;-87
2024/04/06 10:33:53;;;;;;;2.63;2.13;;;18.90;1.00;;;;;;6260364;23;20406;-88
2024/04/06 10:36:23;;;;;;;2.43;2.23;;;18.80;1.00;;;;;;6261435;23;20437;-87
2024/04/06 10:38:51;;;;;;;4.27;2.10;;;18.80;1.00;;;;;;6260207;23;20488;-87
2024/04/06 10:41:22;;;;;;;4.80;4.00;;;18.70;1.00;;;;;;6261910;23;20466;-86
2024/04/06 10:43:52;;;;;;;2.33;2.13;;;18.70;1.00;;;;;;6256654;23;20417;-87
2024/04/06 10:46:22;;;;;;;5.00;2.80;;;18.90;1.00;;;;;;6259958;22;20419;-87
2024/04/06 10:48:49;;;;;;;2.40;2.20;;;19.10;1.00;;;;;;6267633;23;20431;-87
2024/04/06 10:51:24;;;;;;;3.57;3.23;;;19.50;1.00;;;;;;6268944;23;20400;-87
2024/04/06 10:53:58;;;;;;;2.83;2.17;;;19.70;1.00;;;;;;6271037;23;20786;-88
2024/04/06 10:56:34;;;;;;;2.50;2.30;;;19.90;1.00;;;;;;6272115;23;20491;-88
2024/04/06 10:59:06;;;;;;;2.20;2.10;;;20.20;1.00;;;;;;6271433;23;20426;-87
2024/04/06 11:01:40;;;;;;;1.97;1.87;;;20.40;1.00;;;;;;6272334;23;20456;-87
2024/04/06 11:04:18;;;;;;;2.37;2.17;;;20.30;1.00;;;;;;6273003;23;20442;-88
2024/04/06 11:07:17;;;;;;;2.40;2.20;;;20.10;1.00;;;;;;6273719;23;20382;-88
2024/04/06 11:09:45;;;;;;;2.10;1.90;;;20.20;1.00;;;;;;6273202;23;20452;-87
2024/04/06 11:12:19;;;;;;;2.60;2.17;;;20.10;1.00;;;;;;6273355;23;20800;-88
2024/04/06 11:15:02;;;;;;;3.90;2.60;;;20.20;1.00;;;;;;6272675;23;20419;-88
2024/04/06 11:17:29;;;;;;;4.10;1.63;;;20.30;1.00;;;;;;6273858;22;20402;-88
2024/04/06 11:19:56;;;;;;;1.23;1.13;;;20.40;1.00;;;;;;6274266;22;20456;-87
2024/04/06 11:22:30;;;;;;;2.60;1.80;;;20.40;1.00;;;;;;6274228;22;20460;-86
2024/04/06 11:25:00;;;;;;;1.80;1.60;;;20.30;1.00;;;;;;6274199;23;20436;-87
2024/04/06 11:27:27;;;;;;;2.30;2.10;;;20.30;1.00;;;;;;6274012;23;20391;-87
2024/04/06 11:30:03;;;;;;;1.80;1.70;;;20.20;1.00;;;;;;6274315;22;20495;-88
2024/04/06 11:33:00;;;;;;;2.70;2.50;;;20.40;1.00;;;;;;6273937;22;20453;-87
2024/04/06 11:35:28;;;;;;;3.83;2.00;;;20.50;1.00;;;;;;6270365;22;20385;-87
2024/04/06 11:38:00;;;;;;;2.13;1.87;;;20.70;1.00;;;;;;6274332;22;20433;-88
2024/04/06 11:40:29;;;;;;;2.23;1.93;;;20.80;1.00;;;;;;6273600;22;20429;-88
2024/04/06 11:42:57;;;;;;;2.30;2.10;;;20.90;1.00;;;;;;6274114;23;20448;-88
2024/04/06 11:45:25;;;;;;;3.57;2.67;;;21.10;1.00;;;;;;6273300;22;20417;-88
2024/04/06 11:47:56;;;;;;;6.07;2.07;;;21.20;1.00;;;;;;6273737;23;20394;-87
2024/04/06 11:50:32;;;;;;;3.07;2.30;;;20.90;99.90;;;;;;6270867;23;20503;-87
2024/04/06 11:53:09;;;;;;;3.33;2.67;;;21.10;99.90;;;;;;6271492;23;20381;-87
2024/04/06 11:55:42;;;;;;;2.00;1.30;;;21.10;99.90;;;;;;6272473;23;20393;-86
2024/04/06 11:58:14;;;;;;;3.07;1.53;;;21.10;99.90;;;;;;6261402;23;20460;-88
2024/04/06 12:00:44;;;;;;;6.00;1.90;;;21.10;99.90;;;;;;6254942;23;20436;-87
2024/04/06 12:03:12;;;;;;;3.33;2.10;;;21.10;99.90;;;;;;6252138;23;20409;-88
2024/04/06 12:05:43;;;;;;;1.93;1.60;;;21.10;99.90;;;;;;6253927;23;20425;-88
2024/04/06 12:08:34;;;;;;;3.80;2.10;;;21.10;99.90;;;;;;6262036;23;20373;-88
2024/04/06 12:11:10;;;;;;;2.40;2.20;;;21.10;99.90;;;;;;6264199;22;20409;-87
2024/04/06 12:13:53;;;;;;;2.30;1.67;;;21.20;99.90;;;;;;6260516;22;20408;-88
2024/04/06 12:16:29;;;;;;;1.33;1.23;;;21.20;99.90;;;;;;6274012;22;20488;-87
2024/04/06 12:19:01;;;;;;;2.40;1.47;;;21.10;99.90;;;;;;6274332;22;20420;-86
2024/04/06 12:21:44;;;;;;;1.73;1.63;;;21.10;99.90;;;;;;6260454;23;20442;-88
2024/04/06 12:24:18;;;;;;;2.67;1.70;;;21.10;99.90;;;;;;6255626;23;20373;-88
2024/04/06 12:26:57;;;;;;;3.07;1.60;;;21.30;99.90;;;;;;6255987;23;20409;-87
2024/04/06 12:29:34;;;;;;;2.80;2.57;;;21.40;99.90;;;;;;6258942;23;20496;-87
2024/04/06 12:32:39;;;;;;;2.47;1.70;;;21.50;99.90;;;;;;6268051;23;20401;-88
2024/04/06 12:38:00;;;;;;;2.73;1.63;;;21.60;99.90;;;;;;6272034;22;20429;-87
2024/04/06 12:41:01;;;;;;;1.87;1.77;;;21.50;99.90;;;;;;6269397;23;20433;-87
2024/04/06 12:43:47;;;;;;;2.80;1.47;;;21.50;99.90;;;;;;6267211;22;20443;-88
2024/04/06 12:46:40;;;;;;;2.20;1.50;;;21.50;99.90;;;;;;6270670;23;20436;-87
2024/04/06 12:49:17;;;;;;;2.10;1.90;;;21.70;99.90;;;;;;6257917;23;20433;-88
2024/04/06 12:51:53;;;;;;;3.80;2.97;;;21.70;99.90;;;;;;6257969;23;20397;-88
2024/04/06 12:54:22;;;;;;;1.50;1.40;;;21.90;99.90;;;;;;6256420;23;20377;-79
2024/04/06 12:59:38;;;;;;;5.17;2.27;;;22.00;99.90;;;;;;6253092;23;20474;-81
2024/04/06 13:02:06;;;;;;;3.13;2.00;;;;;;;;;;6247040;23;20892;-82
2024/04/06 13:04:33;;;;;;;2.00;1.80;;;;;;;;;;6253359;23;20397;-82
2024/04/06 13:07:00;;;;;;;2.77;2.57;;;;;;;;;;6255249;23;20782;-81
2024/04/06 13:09:36;;;;;;;3.30;1.70;;;;;;;;;;6255384;23;20767;-87
2024/04/06 13:12:05;;;;;;;3.47;2.00;;;;;;;;;;6255505;23;20416;-84
2024/04/06 13:14:32;;;;;;;5.33;1.80;;;;;;;;;;6254480;23;20411;-80
2024/04/06 13:16:58;;;;;;;2.27;1.80;;;;;;;;;;6260379;23;20441;-81
2024/04/06 13:19:25;;;;;;;2.73;1.50;;;;;;;;;;6255249;23;20417;-81
2024/04/06 13:21:53;;;;;;;2.80;1.33;;;;;;;;;;6254875;23;20475;-81
2024/04/06 13:24:20;;;;;;;1.40;1.10;;;;;;;;;;6254365;23;20378;-81
2024/04/06 13:26:46;;;;;;;2.70;1.20;;;;;;;;;;6254194;23;20398;-81
2024/04/06 13:29:16;;;;;;;2.40;2.20;;;;;;;;;;6254864;23;20433;-81
2024/04/06 13:31:43;;;;;;;1.50;1.40;;;;;;;;;;6259113;23;20851;-81
2024/04/06 13:34:11;;;;;;;2.00;1.50;;;;;;;;;;6254378;23;20792;-81
2024/04/06 13:36:38;;;;;;;4.30;1.60;;;;;;;;;;6255842;23;20500;-81
2024/04/06 13:39:06;;;;;;;1.50;1.40;;;22.20;1.00;;;;;;6257945;23;20946;-81
2024/04/06 13:41:32;;;;;;;3.17;1.40;;;22.20;1.00;;;;;;6253308;23;20743;-82
2024/04/06 13:43:59;;;;;;;2.23;2.00;;;22.20;1.00;;;;;;6253313;23;20424;-81
2024/04/06 13:46:26;;;;;;;2.10;2.00;;;;;;;;;;6254379;23;20455;-81
2024/04/06 13:48:53;;;;;;;1.60;1.50;;;22.20;1.00;;;;;;6255489;23;20478;-81
2024/04/06 13:51:19;;;;;;;1.33;1.23;;;22.10;1.00;;;;;;6260659;22;20431;-80
2024/04/06 13:53:47;;;;;;;2.00;1.90;;;22.20;1.00;;;;;;6274659;23;20405;-80
2024/04/06 13:56:12;;;;;;;1.60;1.50;;;22.20;1.00;;;;;;6274370;23;20166;-81
2024/04/06 13:58:39;;;;;;;1.90;1.70;;;22.30;6.10;;;;;;6270865;23;20452;-79
2024/04/06 14:01:07;;;;;;;2.07;1.97;;;;;;;;;;6270390;23;20388;-81
2024/04/06 14:03:35;;;;;;;6.03;1.60;;;;;;;;;;6255581;23;20401;-82
2024/04/06 14:06:04;;;;;;;3.53;1.70;;;22.70;1.00;;;;;;6255650;23;20408;-81
2024/04/06 14:08:31;;;;;;;2.90;2.20;;;22.30;1.00;;;;;;6254693;23;20406;-81
2024/04/06 14:10:57;;;;;;;3.20;1.60;;;22.20;1.00;;;;;;6254189;23;20409;-81
2024/04/06 14:13:29;;;;;;;3.23;2.77;;;22.20;1.00;;;;;;6254873;23;20425;-82
2024/04/06 14:15:55;;;;;;;2.23;1.53;;;22.10;1.00;;;;;;6270971;23;20445;-81
2024/04/06 14:18:22;;;;;;;8.73;7.83;;;22.00;1.00;;;;;;6271341;23;20417;-81
2024/04/06 14:20:49;;;;;;;3.77;1.60;;;22.00;1.00;;;;;;6263385;23;20433;-82
2024/04/06 14:23:16;;;;;;;3.20;2.70;;;22.50;1.00;;;;;;6259512;23;20432;-82
2024/04/06 14:25:42;;;;;;;4.50;2.83;;;21.40;1.00;;;;;;6265759;23;20406;-82
2024/04/06 14:28:09;;;;;;;4.87;4.20;;;22.10;1.00;;;;;;6260823;23;20867;-82
2024/04/06 14:30:36;;;;;;;4.27;1.70;;;22.10;1.00;;;;;;6255309;23;20237;-82
2024/04/06 14:33:03;;;;;;;3.60;2.23;;;21.60;1.00;;;;;;6258262;23;20749;-82
2024/04/06 14:35:30;;;;;;;2.17;1.80;;;22.10;1.00;;;;;;6254608;23;20409;-82
2024/04/06 14:37:58;;;;;;;2.93;2.17;;;22.10;1.00;;;;;;6252994;23;20433;-82
2024/04/06 14:40:24;;;;;;;2.40;2.00;;;22.20;1.00;;;;;;6253955;23;20430;-82
2024/04/06 14:42:51;;;;;;;5.77;3.00;;;22.20;1.00;;;;;;6253362;23;20477;-82
2024/04/06 14:45:17;;;;;;;1.90;1.80;;;22.10;1.00;;;;;;6254748;23;20744;-81
2024/04/06 14:47:44;;;;;;;2.17;1.60;;;22.00;1.00;;;;;;6257226;23;20397;-80
2024/04/06 14:50:10;;;;;;;3.80;2.07;;;21.90;1.00;;;;;;6253643;23;20210;-81
2024/04/06 14:52:39;;;;;;;3.87;1.73;;;21.90;1.00;;;;;;6254942;23;20914;-81
2024/04/06 14:55:06;;;;;;;5.80;2.37;;;21.80;1.00;;;;;;6252823;23;20408;-80
2024/04/06 14:57:33;;;;;;;6.83;2.67;;;21.90;1.00;;;;;;6254925;23;20437;-81
2024/04/06 15:00:00;;;;;;;9.00;1.83;;;21.90;1.00;;;;;;6253727;23;20952;-81
2024/04/06 15:02:26;;;;;;;7.77;3.20;;;21.80;1.00;;;;;;6253534;23;20892;-83
2024/04/06 15:05:00;;;;;;;2.00;1.40;;;21.80;1.00;;;;;;6254621;23;20415;-88
2024/04/06 15:10:46;;;;;;;3.37;1.80;;;21.80;1.00;;;;;;6167056;23;20424;-90
2024/04/06 15:13:31;;;;;;;2.60;1.10;;;22.40;1.00;;;;;;6256390;23;20409;-90
2024/04/06 15:16:02;;;;;;;2.60;1.67;;;22.10;1.00;;;;;;6256279;23;20366;-91
2024/04/06 15:19:09;;;;;;;2.43;1.60;;;22.20;40.10;;;;;;6265015;22;20449;-92
2024/04/06 15:21:45;;;;;;;1.57;1.47;;;;;;;;;;6226058;22;20432;-91
2024/04/06 15:24:33;;;;;;;1.80;1.70;;;;;;;;;;6273944;22;20465;-92
2024/04/06 15:27:08;;;;;;;2.27;2.07;;;21.50;98.00;;;;;;6259077;23;20762;-89
2024/04/06 15:32:28;;;;;;;1.30;1.07;;;22.30;31.40;;;;;;6288604;22;20443;-91
2024/04/06 15:35:08;;;;;;;1.57;1.30;;;21.60;6.40;;;;;;6289070;22;20395;-90
2024/04/06 15:37:51;;;;;;;3.83;2.60;;;22.10;29.20;;;;;;6291477;22;20428;-90
2024/04/06 15:40:42;;;;;;;1.80;1.70;;;22.10;13.90;;;;;;6290676;22;20428;-90
2024/04/06 15:43:22;;;;;;;1.90;1.70;;;;;;;;;;6294524;22;20385;-91
2024/04/06 15:45:48;;;;;;;2.60;1.87;;;21.80;45.40;;;;;;6300166;22;20428;-90
2024/04/06 15:48:16;;;;;;;3.17;1.97;;;;;;;;;;6290217;22;20409;-90
2024/04/06 15:50:48;;;;;;;1.63;1.50;;;22.30;56.60;;;;;;6291284;22;20438;-90
2024/04/06 15:53:30;;;;;;;2.70;1.80;;;;;;;;;;6291127;22;20411;-90
2024/04/06 15:55:58;;;;;;;1.97;1.60;;;;;;;;;;6287898;22;20400;-90
2024/04/06 15:58:28;;;;;;;4.97;2.57;;;;;;;;;;6287656;22;20437;-90
2024/04/06 16:01:04;;;;;;;2.23;1.70;;;22.20;99.90;;;;;;6289177;22;20385;-90
2024/04/06 16:03:33;;;;;;;3.70;1.90;;;;;;;;;;6289117;22;20424;-90
2024/04/06 16:06:03;;;;;;;3.53;2.13;;;;;;;;;;6291955;22;20413;-90
2024/04/06 16:08:37;;;;;;;2.97;2.10;;;22.00;30.00;;;;;;6288590;22;20393;-90
2024/04/06 16:11:09;;;;;;;1.90;1.70;;;21.90;32.60;;;;;;6287443;22;20413;-90
2024/04/06 16:13:40;;;;;;;5.40;3.63;;;22.00;99.90;;;;;;6289446;22;20409;-90
2024/04/06 16:16:08;;;;;;;2.60;1.60;;;21.90;60.70;;;;;;6289606;22;20409;-90
2024/04/06 16:18:38;;;;;;;3.50;1.50;;;22.00;28.60;;;;;;6289634;22;20767;-91
2024/04/06 16:21:08;;;;;;;1.63;1.43;;;21.70;61.20;;;;;;6299720;22;20389;-93
2024/04/06 16:23:41;;;;;;;4.17;1.63;;;21.60;99.90;;;;;;6301269;22;20399;-92
2024/04/06 16:26:16;;;;;;;3.77;3.10;;;20.80;99.90;;;;;;6292168;22;20414;-91
2024/04/06 16:29:00;;;;;;;6.63;4.10;;;;;;;;;;6287131;22;20406;-91
2024/04/06 16:31:31;;;;;;;8.00;5.70;;;21.20;99.90;;;;;;6288383;22;20486;-90
2024/04/06 16:34:03;;;;;;;6.17;3.53;;;21.30;99.90;;;;;;6296609;22;20411;-91
2024/04/06 16:36:32;;;;;;;2.83;1.73;;;;;;;;;;6288292;22;20902;-90
2024/04/06 16:39:00;;;;;;;4.47;2.77;;;;;;;;;;6302088;22;20452;-91
2024/04/06 16:41:27;;;;;;;7.80;5.10;;;;;;;;;;6287584;22;20396;-90